Lewiston, California
Current Conditions -  °F | °C
As of 11:35 AM on Monday 20 Oct 2014 (Local Time) from KO54 Reporting Station
Broken Clouds Broken Clouds  
Wind Chill: 55°   Ceiling: 6000
Heat Index: 55°   Visibility: 10mi
Dew Point: 46°   Wind: 7mph
Humidity: 72%   Direction: 200°SSW
Pressure: 29.92"   Gusts: NA
Location:  40.71°N, 122.81°W
Report Text: KO54 201835Z AUTO 20006KT 10SM FEW034 SCT041 BKN060 13/08 A2992 RMK AO1
Loading
Personal Weather Stations






























Interactive Weather Map
Tropical Storm Tracking
New forecast layout! Learn more

10-Day Weather Forecast

Advertisements
Track Severe Weather on mobile